Time,TemperatureF,DewpointF,PressureIn,WindDirection,WindDirectionDegrees,WindSpeedMPH,WindSpeedGustMPH,Humidity,HourlyPrecipIn,Conditions,Clouds,dailyrainin,SoftwareType,DateUTC
2013-12-24 00:09:00,9.0,7.1,30.15,North,0,0.0,-999.0,92,-99.99,,,0.00,Acu-Link.com,2013-12-24 05:09:00,
2013-12-24 00:24:00,8.1,5.0,30.15,North,0,0.0,-999.0,87,-99.99,,,0.00,Acu-Link.com,2013-12-24 05:24:00,
2013-12-24 00:39:00,7.0,3.4,30.15,North,0,0.0,-999.0,85,-99.99,,,0.00,Acu-Link.com,2013-12-24 05:39:00,
2013-12-24 00:55:00,6.4,3.4,30.15,North,0,0.0,-999.0,87,-99.99,,,0.00,Acu-Link.com,2013-12-24 05:55:00,
2013-12-24 01:10:00,5.9,3.4,30.16,North,0,0.0,-999.0,89,-99.99,,,0.00,Acu-Link.com,2013-12-24 06:10:00,
2013-12-24 01:25:00,5.7,3.9,30.15,North,0,0.0,-999.0,92,-99.99,,,0.00,Acu-Link.com,2013-12-24 06:25:00,
2013-12-24 01:40:00,5.4,3.3,30.16,North,0,0.0,-999.0,91,-99.99,,,0.00,Acu-Link.com,2013-12-24 06:40:00,
2013-12-24 01:55:00,5.0,3.0,30.16,North,0,0.0,-999.0,91,-99.99,,,0.00,Acu-Link.com,2013-12-24 06:55:00,
2013-12-24 02:11:00,4.5,2.4,30.17,North,0,0.0,-999.0,91,-99.99,,,0.00,Acu-Link.com,2013-12-24 07:11:00,
2013-12-24 02:26:00,4.1,2.1,30.18,North,0,0.0,-999.0,91,-99.99,,,0.00,Acu-Link.com,2013-12-24 07:26:00,
2013-12-24 02:41:00,3.6,1.3,30.18,North,0,0.0,-999.0,90,-99.99,,,0.00,Acu-Link.com,2013-12-24 07:41:00,
2013-12-24 02:56:00,2.8,0.6,30.19,North,0,0.0,-999.0,90,-99.99,,,0.00,Acu-Link.com,2013-12-24 07:56:00,
2013-12-24 03:11:00,2.1,-0.4,30.19,North,0,0.0,-999.0,89,-99.99,,,0.00,Acu-Link.com,2013-12-24 08:11:00,
2013-12-24 03:27:00,1.6,-0.9,30.19,North,0,0.0,-999.0,89,-99.99,,,0.00,Acu-Link.com,2013-12-24 08:27:00,
2013-12-24 03:42:00,1.2,-1.3,30.20,North,0,0.0,-999.0,89,-99.99,,,0.00,Acu-Link.com,2013-12-24 08:42:00,
2013-12-24 03:57:00,0.7,-1.5,30.20,North,0,0.0,-999.0,90,-99.99,,,0.00,Acu-Link.com,2013-12-24 08:57:00,
2013-12-24 04:12:00,1.0,-1.2,30.19,North,0,0.0,-999.0,90,-99.99,,,0.00,Acu-Link.com,2013-12-24 09:12:00,
2013-12-24 04:28:00,0.7,-1.3,30.18,North,0,0.0,-999.0,91,-99.99,,,0.00,Acu-Link.com,2013-12-24 09:28:00,
2013-12-24 04:43:00,0.7,-1.5,30.19,North,0,0.0,-999.0,90,-99.99,,,0.00,Acu-Link.com,2013-12-24 09:43:00,
2013-12-24 04:58:00,0.9,-1.6,30.19,North,0,0.0,-999.0,89,-99.99,,,0.00,Acu-Link.com,2013-12-24 09:58:00,
2013-12-24 05:13:00,0.9,-1.4,30.19,North,0,0.0,-999.0,90,-99.99,,,0.00,Acu-Link.com,2013-12-24 10:13:00,
2013-12-24 05:28:00,0.9,-1.6,30.19,North,0,0.0,-999.0,89,-99.99,,,0.00,Acu-Link.com,2013-12-24 10:28:00,
2013-12-24 05:44:00,0.5,-2.2,30.19,North,0,0.0,-999.0,88,-99.99,,,0.00,Acu-Link.com,2013-12-24 10:44:00,
2013-12-24 05:59:00,0.0,-3.0,30.19,North,0,0.0,-999.0,87,-99.99,,,0.00,Acu-Link.com,2013-12-24 10:59:00,
2013-12-24 06:14:00,0.3,-2.4,30.19,North,0,0.0,-999.0,88,-99.99,,,0.00,Acu-Link.com,2013-12-24 11:14:00,
2013-12-24 06:29:00,0.3,-2.1,30.19,North,0,0.0,-999.0,89,-99.99,,,0.00,Acu-Link.com,2013-12-24 11:29:00,
2013-12-24 06:44:00,0.3,-2.4,30.19,North,0,0.0,-999.0,88,-99.99,,,0.00,Acu-Link.com,2013-12-24 11:44:00,
2013-12-24 07:00:00,0.3,-2.6,30.19,North,0,0.0,-999.0,87,-99.99,,,0.00,Acu-Link.com,2013-12-24 12:00:00,
2013-12-24 07:15:00,-0.4,-3.8,30.17,North,0,0.0,-999.0,85,-99.99,,,0.00,Acu-Link.com,2013-12-24 12:15:00,
2013-12-24 07:30:00,-0.6,-3.7,30.17,North,0,0.0,-999.0,86,-99.99,,,0.00,Acu-Link.com,2013-12-24 12:30:00,
2013-12-24 07:45:00,-1.3,-4.9,30.18,North,0,0.0,-999.0,84,-99.99,,,0.00,Acu-Link.com,2013-12-24 12:45:00,
2013-12-24 08:00:00,-1.8,-5.5,30.18,North,0,0.0,-999.0,84,-99.99,,,0.00,Acu-Link.com,2013-12-24 13:00:00,
2013-12-24 08:16:00,-2.2,-6.1,30.18,North,0,0.0,-999.0,83,-99.99,,,0.00,Acu-Link.com,2013-12-24 13:16:00,
2013-12-24 08:31:00,-2.4,-6.0,30.18,North,0,0.0,-999.0,84,-99.99,,,0.00,Acu-Link.com,2013-12-24 13:31:00,
2013-12-24 08:46:00,-1.3,-4.7,30.19,North,0,0.0,-999.0,85,-99.99,,,0.00,Acu-Link.com,2013-12-24 13:46:00,
2013-12-24 09:01:00,0.1,-3.3,30.19,North,0,0.0,-999.0,85,-99.99,,,0.00,Acu-Link.com,2013-12-24 14:01:00,
2013-12-24 09:17:00,2.7,-1.3,30.19,North,0,0.0,-999.0,83,-99.99,,,0.00,Acu-Link.com,2013-12-24 14:17:00,
2013-12-24 09:32:00,4.3,-0.8,30.19,North,0,0.0,-999.0,79,-99.99,,,0.00,Acu-Link.com,2013-12-24 14:32:00,
2013-12-24 09:47:00,4.8,-1.1,30.19,North,0,0.0,-999.0,76,-99.99,,,0.00,Acu-Link.com,2013-12-24 14:47:00,
2013-12-24 10:02:00,5.2,-1.3,30.20,North,0,0.0,-999.0,74,-99.99,,,0.00,Acu-Link.com,2013-12-24 15:02:00,
2013-12-24 10:17:00,7.2,0.4,30.20,North,0,0.0,-999.0,73,-99.99,,,0.00,Acu-Link.com,2013-12-24 15:17:00,
2013-12-24 10:33:00,7.9,0.8,30.20,North,0,0.0,-999.0,72,-99.99,,,0.00,Acu-Link.com,2013-12-24 15:33:00,
2013-12-24 10:48:00,9.7,1.9,30.19,North,0,0.0,-999.0,70,-99.99,,,0.00,Acu-Link.com,2013-12-24 15:48:00,
2013-12-24 11:03:00,8.8,0.7,30.18,North,0,0.0,-999.0,69,-99.99,,,0.00,Acu-Link.com,2013-12-24 16:03:00,
2013-12-24 11:18:00,8.2,0.5,30.18,North,0,0.0,-999.0,70,-99.99,,,0.00,Acu-Link.com,2013-12-24 16:18:00,
2013-12-24 11:33:00,9.5,1.7,30.17,North,0,0.0,-999.0,70,-99.99,,,0.00,Acu-Link.com,2013-12-24 16:33:00,
2013-12-24 11:49:00,10.4,2.9,30.17,North,0,0.0,-999.0,71,-99.99,,,0.00,Acu-Link.com,2013-12-24 16:49:00,
2013-12-24 12:04:00,9.7,1.6,30.17,North,0,0.0,-999.0,69,-99.99,,,0.00,Acu-Link.com,2013-12-24 17:04:00,
2013-12-24 12:19:00,12.6,3.7,30.16,North,0,0.0,-999.0,67,-99.99,,,0.00,Acu-Link.com,2013-12-24 17:19:00,
2013-12-24 12:34:00,12.6,3.4,30.16,North,0,0.0,-999.0,66,-99.99,,,0.00,Acu-Link.com,2013-12-24 17:34:00,
2013-12-24 12:49:00,12.0,3.8,30.15,North,0,0.0,-999.0,69,-99.99,,,0.00,Acu-Link.com,2013-12-24 17:49:00,
2013-12-24 13:05:00,11.7,3.8,30.14,North,0,0.0,-999.0,70,-99.99,,,0.00,Acu-Link.com,2013-12-24 18:05:00,
2013-12-24 13:20:00,11.8,3.7,30.14,North,0,0.0,-999.0,69,-99.99,,,0.00,Acu-Link.com,2013-12-24 18:20:00,
2013-12-24 13:35:00,10.4,2.3,30.14,North,0,0.0,-999.0,69,-99.99,,,0.00,Acu-Link.com,2013-12-24 18:35:00,
2013-12-24 13:50:00,9.7,2.5,30.14,North,0,0.0,-999.0,72,-99.99,,,0.00,Acu-Link.com,2013-12-24 18:50:00,
2013-12-24 14:06:00,10.8,3.8,30.14,North,0,0.0,-999.0,73,-99.99,,,0.00,Acu-Link.com,2013-12-24 19:06:00,
2013-12-24 14:21:00,9.5,3.2,30.14,North,0,0.0,-999.0,75,-99.99,,,0.00,Acu-Link.com,2013-12-24 19:21:00,
2013-12-24 14:36:00,8.4,2.2,30.15,North,0,0.0,-999.0,75,-99.99,,,0.00,Acu-Link.com,2013-12-24 19:36:00,
2013-12-24 14:51:00,8.2,2.0,30.15,North,0,0.0,-999.0,75,-99.99,,,0.00,Acu-Link.com,2013-12-24 19:51:00,
2013-12-24 15:06:00,8.4,3.0,30.16,North,0,0.0,-999.0,78,-99.99,,,0.00,Acu-Link.com,2013-12-24 20:06:00,
2013-12-24 15:22:00,7.0,1.3,30.17,North,0,0.0,-999.0,77,-99.99,,,0.00,Acu-Link.com,2013-12-24 20:22:00,
2013-12-24 15:37:00,5.7,-1.0,30.17,North,0,0.0,-999.0,73,-99.99,,,0.00,Acu-Link.com,2013-12-24 20:37:00,
2013-12-24 15:52:00,4.8,-0.8,30.18,North,0,0.0,-999.0,77,-99.99,,,0.00,Acu-Link.com,2013-12-24 20:52:00,
2013-12-24 16:07:00,3.7,-1.8,30.18,North,0,0.0,-999.0,77,-99.99,,,0.00,Acu-Link.com,2013-12-24 21:07:00,
2013-12-24 16:22:00,2.8,-2.2,30.18,North,0,0.0,-999.0,79,-99.99,,,0.00,Acu-Link.com,2013-12-24 21:22:00,
2013-12-24 16:38:00,2.1,-2.9,30.19,North,0,0.0,-999.0,79,-99.99,,,0.00,Acu-Link.com,2013-12-24 21:38:00,
2013-12-24 16:53:00,1.8,-3.0,30.19,North,0,0.0,-999.0,80,-99.99,,,0.00,Acu-Link.com,2013-12-24 21:53:00,
2013-12-24 17:08:00,1.4,-3.3,30.19,North,0,0.0,-999.0,80,-99.99,,,0.00,Acu-Link.com,2013-12-24 22:08:00,
2013-12-24 17:23:00,1.0,-3.7,30.19,North,0,0.0,-999.0,80,-99.99,,,0.00,Acu-Link.com,2013-12-24 22:23:00,
2013-12-24 17:38:00,0.9,-3.8,30.20,North,0,0.0,-999.0,80,-99.99,,,0.00,Acu-Link.com,2013-12-24 22:38:00,
2013-12-24 17:54:00,0.5,-4.2,30.21,North,0,0.0,-999.0,80,-99.99,,,0.00,Acu-Link.com,2013-12-24 22:54:00,
2013-12-24 18:09:00,0.7,-3.8,30.21,North,0,0.0,-999.0,81,-99.99,,,0.00,Acu-Link.com,2013-12-24 23:09:00,
2013-12-24 18:24:00,0.9,-4.1,30.21,North,0,0.0,-999.0,79,-99.99,,,0.00,Acu-Link.com,2013-12-24 23:24:00,
2013-12-24 18:39:00,0.9,-3.8,30.22,North,0,0.0,-999.0,80,-99.99,,,0.00,Acu-Link.com,2013-12-24 23:39:00,
2013-12-24 18:55:00,0.5,-4.7,30.23,North,0,0.0,-999.0,78,-99.99,,,0.00,Acu-Link.com,2013-12-24 23:55:00,
2013-12-24 19:10:00,0.1,-4.8,30.23,North,0,0.0,-999.0,79,-99.99,,,0.00,Acu-Link.com,2013-12-25 00:10:00,
2013-12-24 19:25:00,0.0,-5.0,30.23,North,0,0.0,-999.0,79,-99.99,,,0.00,Acu-Link.com,2013-12-25 00:25:00,
2013-12-24 19:40:00,-0.2,-4.9,30.24,North,0,0.0,-999.0,80,-99.99,,,0.00,Acu-Link.com,2013-12-25 00:40:00,
2013-12-24 19:55:00,-0.2,-5.2,30.24,North,0,0.0,-999.0,79,-99.99,,,0.00,Acu-Link.com,2013-12-25 00:55:00,
2013-12-24 20:11:00,-0.6,-5.5,30.25,North,0,0.0,-999.0,79,-99.99,,,0.00,Acu-Link.com,2013-12-25 01:11:00,
2013-12-24 20:26:00,-0.9,-6.1,30.25,North,0,0.0,-999.0,78,-99.99,,,0.00,Acu-Link.com,2013-12-25 01:26:00,
2013-12-24 20:41:00,-1.3,-6.2,30.25,North,0,0.0,-999.0,79,-99.99,,,0.00,Acu-Link.com,2013-12-25 01:41:00,
2013-12-24 20:56:00,-1.5,-6.1,30.26,North,0,0.0,-999.0,80,-99.99,,,0.00,Acu-Link.com,2013-12-25 01:56:00,
2013-12-24 21:11:00,-1.7,-6.3,30.26,North,0,0.0,-999.0,80,-99.99,,,0.00,Acu-Link.com,2013-12-25 02:11:00,
2013-12-24 21:27:00,-1.7,-6.6,30.26,North,0,0.0,-999.0,79,-99.99,,,0.00,Acu-Link.com,2013-12-25 02:27:00,
2013-12-24 21:42:00,-1.5,-6.4,30.26,North,0,0.0,-999.0,79,-99.99,,,0.00,Acu-Link.com,2013-12-25 02:42:00,
2013-12-24 21:57:00,-1.3,-6.5,30.27,North,0,0.0,-999.0,78,-99.99,,,0.00,Acu-Link.com,2013-12-25 02:57:00,
2013-12-24 22:12:00,-1.3,-6.7,30.27,North,0,0.0,-999.0,77,-99.99,,,0.00,Acu-Link.com,2013-12-25 03:12:00,
2013-12-24 22:27:00,-1.7,-7.1,30.27,North,0,0.0,-999.0,77,-99.99,,,0.00,Acu-Link.com,2013-12-25 03:27:00,
2013-12-24 22:43:00,-2.0,-7.4,30.28,North,0,0.0,-999.0,77,-99.99,,,0.00,Acu-Link.com,2013-12-25 03:43:00,
2013-12-24 22:58:00,-2.6,-7.7,30.29,North,0,0.0,-999.0,78,-99.99,,,0.00,Acu-Link.com,2013-12-25 03:58:00,
2013-12-24 23:13:00,-3.1,-8.2,30.29,North,0,0.0,-999.0,78,-99.99,,,0.00,Acu-Link.com,2013-12-25 04:13:00,
2013-12-24 23:28:00,-3.3,-8.4,30.30,North,0,0.0,-999.0,78,-99.99,,,0.00,Acu-Link.com,2013-12-25 04:28:00,
2013-12-24 23:44:00,-3.6,-8.7,30.29,North,0,0.0,-999.0,78,-99.99,,,0.00,Acu-Link.com,2013-12-25 04:44:00,
2013-12-24 23:59:00,-4.4,-8.9,30.30,North,0,0.0,-999.0,80,-99.99,,,0.00,Acu-Link.com,2013-12-25 04:59:00,